MET'MAP v2.0
soon released !

Expected late october,
this new version will be
more efficient, smarter,
and hosted on a brand new
server x3 powerfull...
...and still free !


Not compatible ?
Try the mobile version !

LOG IN : | Subscribe | Disclaimer | Who is Orbifly ? |
ICAO code :

TAF - EPPW Powidz - 31 May 2020 03:44 UTC - Data Source NOAA   


- Airport Elevation : 371 ft
- No reported NOTAMs.


EPPW - Powidz

NO METAR
TAF TAF EPPW
Valid from the 31 at 00:00 until the 31 at 09:00 UTC


302300Z 3100/3109 36010KT 9999 BKN040
TEMPO 3100/3109 35015G25KT
PROB30
TEMPO 3100/3106 5000 -RA BR BKN008 BKN020

Source NOAA


MET'MAP, your aeronautical weather chart ! - Copyright ORBIFLY December 2007

Programming & Development : Alexandra Zaïnal
Co-Developer : Marc-Olivier Méhu
Technical & hardware support : Manuel Goepfert
Concept & Financing : Baudouin d'Aumeries